sensor_id;sensor_type;location;lat;lon;timestamp;pressure;altitude;pressure_sealevel;temperature;humidity
5872;BME280;2962;51.312;7.378;2022-12-07T00:01:55;97446.06;;;2.37;100.00
5872;BME280;2962;51.312;7.378;2022-12-07T00:04:20;97442.25;;;2.38;100.00
5872;BME280;2962;51.312;7.378;2022-12-07T00:06:50;97443.06;;;2.38;100.00
5872;BME280;2962;51.312;7.378;2022-12-07T00:09:17;97435.31;;;2.37;100.00
5872;BME280;2962;51.312;7.378;2022-12-07T00:11:43;97431.50;;;2.38;100.00
5872;BME280;2962;51.312;7.378;2022-12-07T00:14:12;97427.72;;;2.39;100.00
5872;BME280;2962;51.312;7.378;2022-12-07T00:16:38;97434.69;;;2.40;100.00
5872;BME280;2962;51.312;7.378;2022-12-07T00:19:03;97428.50;;;2.39;100.00
5872;BME280;2962;51.312;7.378;2022-12-07T00:21:32;97429.59;;;2.30;100.00
5872;BME280;2962;51.312;7.378;2022-12-07T00:23:58;97433.41;;;2.37;100.00
5872;BME280;2962;51.312;7.378;2022-12-07T00:26:26;97429.75;;;2.33;100.00
5872;BME280;2962;51.312;7.378;2022-12-07T00:28:54;97428.50;;;2.39;100.00
5872;BME280;2962;51.312;7.378;2022-12-07T00:31:22;97429.63;;;2.38;100.00
5872;BME280;2962;51.312;7.378;2022-12-07T00:33:48;97419.50;;;2.35;100.00
5872;BME280;2962;51.312;7.378;2022-12-07T00:36:16;97419.34;;;2.40;100.00
5872;BME280;2962;51.312;7.378;2022-12-07T00:38:42;97419.97;;;2.37;100.00
5872;BME280;2962;51.312;7.378;2022-12-07T00:41:16;97421.25;;;2.40;100.00
5872;BME280;2962;51.312;7.378;2022-12-07T00:43:43;97415.06;;;2.39;100.00
5872;BME280;2962;51.312;7.378;2022-12-07T00:46:09;97411.44;;;2.35;100.00
5872;BME280;2962;51.312;7.378;2022-12-07T00:48:35;97417.94;;;2.43;100.00
5872;BME280;2962;51.312;7.378;2022-12-07T00:51:01;97401.75;;;2.34;100.00
5872;BME280;2962;51.312;7.378;2022-12-07T00:53:27;97400.69;;;2.35;100.00
5872;BME280;2962;51.312;7.378;2022-12-07T00:55:52;97410.31;;;2.45;100.00
5872;BME280;2962;51.312;7.378;2022-12-07T00:58:18;97411.44;;;2.44;100.00
5872;BME280;2962;51.312;7.378;2022-12-07T01:00:44;97414.91;;;2.44;100.00
5872;BME280;2962;51.312;7.378;2022-12-07T01:03:12;97411.91;;;2.46;100.00
5872;BME280;2962;51.312;7.378;2022-12-07T01:05:38;97413.34;;;2.43;100.00
5872;BME280;2962;51.312;7.378;2022-12-07T01:08:03;97400.19;;;2.42;100.00
5872;BME280;2962;51.312;7.378;2022-12-07T01:10:29;97398.63;;;2.41;100.00
5872;BME280;2962;51.312;7.378;2022-12-07T01:12:56;97404.63;;;2.47;100.00
5872;BME280;2962;51.312;7.378;2022-12-07T01:15:21;97403.38;;;2.44;100.00
5872;BME280;2962;51.312;7.378;2022-12-07T01:17:46;97406.69;;;2.41;100.00
5872;BME280;2962;51.312;7.378;2022-12-07T01:20:12;97398.00;;;2.35;100.00
5872;BME280;2962;51.312;7.378;2022-12-07T01:22:39;97409.22;;;2.46;100.00
5872;BME280;2962;51.312;7.378;2022-12-07T01:25:05;97406.38;;;2.42;100.00
5872;BME280;2962;51.312;7.378;2022-12-07T01:27:32;97395.63;;;2.42;100.00
5872;BME280;2962;51.312;7.378;2022-12-07T01:29:58;97390.88;;;2.39;100.00
5872;BME280;2962;51.312;7.378;2022-12-07T01:32:23;97399.72;;;2.49;100.00
5872;BME280;2962;51.312;7.378;2022-12-07T01:34:48;97402.91;;;2.51;100.00
5872;BME280;2962;51.312;7.378;2022-12-07T01:37:13;97403.69;;;2.51;100.00
5872;BME280;2962;51.312;7.378;2022-12-07T01:39:39;97402.13;;;2.50;100.00
5872;BME280;2962;51.312;7.378;2022-12-07T01:42:04;97401.16;;;2.46;100.00
5872;BME280;2962;51.312;7.378;2022-12-07T01:44:30;97403.97;;;2.50;100.00
5872;BME280;2962;51.312;7.378;2022-12-07T01:47:01;97397.81;;;2.40;100.00
5872;BME280;2962;51.312;7.378;2022-12-07T01:49:48;97403.19;;;2.40;100.00
5872;BME280;2962;51.312;7.378;2022-12-07T01:52:23;97404.31;;;2.39;100.00
5872;BME280;2962;51.312;7.378;2022-12-07T01:54:53;97393.06;;;2.37;100.00
5872;BME280;2962;51.312;7.378;2022-12-07T01:57:20;97402.56;;;2.43;100.00
5872;BME280;2962;51.312;7.378;2022-12-07T01:59:48;97402.56;;;2.43;100.00
5872;BME280;2962;51.312;7.378;2022-12-07T02:02:48;97405.72;;;2.45;100.00
5872;BME280;2962;51.312;7.378;2022-12-07T02:05:16;97400.22;;;2.51;100.00
5872;BME280;2962;51.312;7.378;2022-12-07T02:07:42;97391.97;;;2.47;100.00
5872;BME280;2962;51.312;7.378;2022-12-07T02:10:15;97380.56;;;2.41;100.00
5872;BME280;2962;51.312;7.378;2022-12-07T02:12:42;97394.97;;;2.45;100.00
5872;BME280;2962;51.312;7.378;2022-12-07T02:15:10;97385.00;;;2.37;100.00
5872;BME280;2962;51.312;7.378;2022-12-07T02:17:45;97388.97;;;2.49;100.00
5872;BME280;2962;51.312;7.378;2022-12-07T02:20:28;97386.75;;;2.51;100.00
5872;BME280;2962;51.312;7.378;2022-12-07T02:31:36;97389.75;;;2.49;100.00
5872;BME280;2962;51.312;7.378;2022-12-07T02:34:21;97386.28;;;2.49;100.00
5872;BME280;2962;51.312;7.378;2022-12-07T02:36:53;97379.50;;;2.42;100.00
5872;BME280;2962;51.312;7.378;2022-12-07T02:39:29;97383.75;;;2.43;100.00
5872;BME280;2962;51.312;7.378;2022-12-07T02:42:00;97395.91;;;2.50;100.00
5872;BME280;2962;51.312;7.378;2022-12-07T02:44:28;97395.63;;;2.51;100.00
5872;BME280;2962;51.312;7.378;2022-12-07T02:47:03;97390.53;;;2.50;100.00
5872;BME280;2962;51.312;7.378;2022-12-07T02:49:30;97383.75;;;2.52;100.00
5872;BME280;2962;51.312;7.378;2022-12-07T02:51:56;97387.72;;;2.55;100.00
5872;BME280;2962;51.312;7.378;2022-12-07T02:54:21;97389.13;;;2.52;100.00
5872;BME280;2962;51.312;7.378;2022-12-07T02:56:51;97395.28;;;2.53;100.00
5872;BME280;2962;51.312;7.378;2022-12-07T03:10:50;97388.81;;;2.45;100.00
5872;BME280;2962;51.312;7.378;2022-12-07T03:15:55;97391.34;;;2.41;100.00
5872;BME280;2962;51.312;7.378;2022-12-07T03:18:25;97389.75;;;2.40;100.00
5872;BME280;2962;51.312;7.378;2022-12-07T03:20:55;97386.44;;;2.43;100.00
5872;BME280;2962;51.312;7.378;2022-12-07T03:23:23;97392.00;;;2.38;100.00
5872;BME280;2962;51.312;7.378;2022-12-07T03:25:55;97387.69;;;2.37;100.00
5872;BME280;2962;51.312;7.378;2022-12-07T03:28:24;97388.47;;;2.38;100.00
5872;BME280;2962;51.312;7.378;2022-12-07T03:31:05;97389.44;;;2.33;100.00
5872;BME280;2962;51.312;7.378;2022-12-07T03:33:36;97377.28;;;2.27;100.00
5872;BME280;2962;51.312;7.378;2022-12-07T03:36:10;97388.47;;;2.38;100.00
5872;BME280;2962;51.312;7.378;2022-12-07T03:38:49;97385.34;;;2.36;100.00
5872;BME280;2962;51.312;7.378;2022-12-07T03:41:31;97381.06;;;2.35;100.00
5872;BME280;2962;51.312;7.378;2022-12-07T03:43:58;97384.69;;;2.30;100.00
5872;BME280;2962;51.312;7.378;2022-12-07T03:46:39;97381.22;;;2.30;100.00
5872;BME280;2962;51.312;7.378;2022-12-07T03:49:25;97391.97;;;2.30;100.00
5872;BME280;2962;51.312;7.378;2022-12-07T03:52:02;97380.13;;;2.31;100.00
5872;BME280;2962;51.312;7.378;2022-12-07T03:54:37;97385.00;;;2.29;100.00
5872;BME280;2962;51.312;7.378;2022-12-07T03:57:05;97381.38;;;2.25;100.00
5872;BME280;2962;51.312;7.378;2022-12-07T03:59:32;97382.66;;;2.27;100.00
5872;BME280;2962;51.312;7.378;2022-12-07T04:02:02;97388.81;;;2.28;100.00
5872;BME280;2962;51.312;7.378;2022-12-07T04:04:28;97374.72;;;2.22;100.00
5872;BME280;2962;51.312;7.378;2022-12-07T04:06:54;97386.75;;;2.25;100.00
5872;BME280;2962;51.312;7.378;2022-12-07T04:09:19;97377.72;;;2.12;100.00
5872;BME280;2962;51.312;7.378;2022-12-07T04:11:45;97383.72;;;2.17;100.00
5872;BME280;2962;51.312;7.378;2022-12-07T04:14:10;97383.72;;;2.17;100.00
5872;BME280;2962;51.312;7.378;2022-12-07T04:19:10;97376.47;;;2.18;100.00
5872;BME280;2962;51.312;7.378;2022-12-07T04:21:36;97375.34;;;2.19;100.00
5872;BME280;2962;51.312;7.378;2022-12-07T04:24:01;97385.78;;;2.20;100.00
5872;BME280;2962;51.312;7.378;2022-12-07T04:26:26;97379.78;;;2.15;100.00
5872;BME280;2962;51.312;7.378;2022-12-07T04:28:52;97383.72;;;2.17;100.00
5872;BME280;2962;51.312;7.378;2022-12-07T04:31:17;97394.94;;;2.11;100.00
5872;BME280;2962;51.312;7.378;2022-12-07T04:33:42;97391.78;;;2.09;100.00
5872;BME280;2962;51.312;7.378;2022-12-07T04:36:07;97372.97;;;2.09;100.00
5872;BME280;2962;51.312;7.378;2022-12-07T04:38:33;97381.03;;;2.09;100.00
5872;BME280;2962;51.312;7.378;2022-12-07T04:41:04;97391.97;;;2.12;100.00
5872;BME280;2962;51.312;7.378;2022-12-07T04:43:29;97375.84;;;2.21;100.00
5872;BME280;2962;51.312;7.378;2022-12-07T04:45:55;97371.41;;;2.16;100.00
5872;BME280;2962;51.312;7.378;2022-12-07T04:48:20;97369.19;;;2.18;100.00
5872;BME280;2962;51.312;7.378;2022-12-07T04:50:48;97371.56;;;2.20;100.00
5872;BME280;2962;51.312;7.378;2022-12-07T04:53:14;97355.75;;;2.10;100.00
5872;BME280;2962;51.312;7.378;2022-12-07T04:55:40;97382.31;;;2.20;100.00
5872;BME280;2962;51.312;7.378;2022-12-07T04:58:05;97372.66;;;2.19;100.00
5872;BME280;2962;51.312;7.378;2022-12-07T05:00:30;97375.34;;;2.19;100.00
5872;BME280;2962;51.312;7.378;2022-12-07T05:02:55;97376.47;;;2.18;100.00
5872;BME280;2962;51.312;7.378;2022-12-07T05:05:21;97369.19;;;2.18;100.00
5872;BME280;2962;51.312;7.378;2022-12-07T05:07:46;97372.97;;;2.17;100.00
5872;BME280;2962;51.312;7.378;2022-12-07T05:10:11;97371.56;;;2.20;100.00
5872;BME280;2962;51.312;7.378;2022-12-07T05:12:37;97377.72;;;2.20;100.00
5872;BME280;2962;51.312;7.378;2022-12-07T05:15:02;97362.41;;;2.12;100.00
5872;BME280;2962;51.312;7.378;2022-12-07T05:17:27;97369.97;;;2.19;100.00
5872;BME280;2962;51.312;7.378;2022-12-07T05:19:53;97368.22;;;2.14;100.00
5872;BME280;2962;51.312;7.378;2022-12-07T05:22:18;97384.06;;;2.16;100.00
5872;BME280;2962;51.312;7.378;2022-12-07T05:24:43;97372.03;;;2.13;100.00
5872;BME280;2962;51.312;7.378;2022-12-07T05:27:08;97364.75;;;2.05;100.00
5872;BME280;2962;51.312;7.378;2022-12-07T05:29:34;97376.63;;;2.04;100.00
5872;BME280;2962;51.312;7.378;2022-12-07T05:31:59;97384.03;;;2.07;100.00
5872;BME280;2962;51.312;7.378;2022-12-07T05:34:24;97379.31;;;2.13;100.00
5872;BME280;2962;51.312;7.378;2022-12-07T05:36:49;97376.13;;;2.02;100.00
5872;BME280;2962;51.312;7.378;2022-12-07T05:39:15;97377.25;;;2.10;100.00
5872;BME280;2962;51.312;7.378;2022-12-07T05:41:40;97379.75;;;2.06;100.00
5872;BME280;2962;51.312;7.378;2022-12-07T05:44:24;97369.19;;;2.10;100.00
5872;BME280;2962;51.312;7.378;2022-12-07T05:46:50;97361.44;;;2.08;100.00
5872;BME280;2962;51.312;7.378;2022-12-07T05:49:15;97366.34;;;2.15;100.00
5872;BME280;2962;51.312;7.378;2022-12-07T05:51:40;97363.66;;;2.06;100.00
5872;BME280;2962;51.312;7.378;2022-12-07T05:54:05;97368.06;;;2.02;100.00
5872;BME280;2962;51.312;7.378;2022-12-07T05:56:31;97364.91;;;2.09;100.00
5872;BME280;2962;51.312;7.378;2022-12-07T05:58:56;97370.28;;;2.09;100.00
5872;BME280;2962;51.312;7.378;2022-12-07T06:01:40;97375.81;;;2.04;100.00
5872;BME280;2962;51.312;7.378;2022-12-07T06:04:07;97369.97;;;2.02;100.00
5872;BME280;2962;51.312;7.378;2022-12-07T06:06:32;97366.16;;;2.03;100.00
5872;BME280;2962;51.312;7.378;2022-12-07T06:08:57;97359.06;;;2.07;100.00
5872;BME280;2962;51.312;7.378;2022-12-07T06:11:23;97353.84;;;2.02;100.00
5872;BME280;2962;51.312;7.378;2022-12-07T06:14:07;97366.66;;;2.13;100.00
5872;BME280;2962;51.312;7.378;2022-12-07T06:16:32;97363.34;;;2.08;100.00
5872;BME280;2962;51.312;7.378;2022-12-07T06:18:57;97369.34;;;1.96;100.00
5872;BME280;2962;51.312;7.378;2022-12-07T06:21:23;97367.09;;;1.89;100.00
5872;BME280;2962;51.312;7.378;2022-12-07T06:23:50;97366.94;;;1.94;100.00
5872;BME280;2962;51.312;7.378;2022-12-07T06:26:16;97374.22;;;2.03;100.00
5872;BME280;2962;51.312;7.378;2022-12-07T06:28:41;97365.38;;;2.02;100.00
5872;BME280;2962;51.312;7.378;2022-12-07T06:31:07;97365.88;;;2.04;100.00
5872;BME280;2962;51.312;7.378;2022-12-07T06:33:32;97374.56;;;2.01;100.00
5872;BME280;2962;51.312;7.378;2022-12-07T06:35:58;97361.91;;;2.02;100.00
5872;BME280;2962;51.312;7.378;2022-12-07T06:38:23;97368.84;;;1.94;100.00
5872;BME280;2962;51.312;7.378;2022-12-07T06:40:49;97357.94;;;1.90;100.00
5872;BME280;2962;51.312;7.378;2022-12-07T06:43:15;97361.56;;;1.86;100.00
5872;BME280;2962;51.312;7.378;2022-12-07T06:45:41;97378.34;;;2.00;100.00
5872;BME280;2962;51.312;7.378;2022-12-07T06:48:06;97334.66;;;1.68;100.00
5872;BME280;2962;51.312;7.378;2022-12-07T06:50:31;97322.31;;;1.59;100.00
5872;BME280;2962;51.312;7.378;2022-12-07T06:52:56;97379.25;;;1.95;100.00
5872;BME280;2962;51.312;7.378;2022-12-07T06:55:22;97384.63;;;1.95;100.00
5872;BME280;2962;51.312;7.378;2022-12-07T06:57:47;97369.97;;;1.93;100.00
5872;BME280;2962;51.312;7.378;2022-12-07T07:00:13;97378.47;;;1.86;100.00
5872;BME280;2962;51.312;7.378;2022-12-07T07:02:38;97362.34;;;1.78;100.00
5872;BME280;2962;51.312;7.378;2022-12-07T07:05:03;97372.31;;;1.86;100.00
5872;BME280;2962;51.312;7.378;2022-12-07T07:07:29;97365.81;;;1.87;100.00
5872;BME280;2962;51.312;7.378;2022-12-07T07:09:54;97377.84;;;1.89;100.00
5872;BME280;2962;51.312;7.378;2022-12-07T07:12:19;97388.44;;;1.94;100.00
5872;BME280;2962;51.312;7.378;2022-12-07T07:14:45;97377.06;;;1.89;100.00
5872;BME280;2962;51.312;7.378;2022-12-07T07:17:10;97385.13;;;1.89;100.00
5872;BME280;2962;51.312;7.378;2022-12-07T07:19:35;97375.44;;;1.79;100.00
5872;BME280;2962;51.312;7.378;2022-12-07T07:22:02;97386.03;;;1.84;100.00
5872;BME280;2962;51.312;7.378;2022-12-07T07:24:28;97394.09;;;1.84;100.00
5872;BME280;2962;51.312;7.378;2022-12-07T07:26:53;97397.28;;;1.86;100.00
5872;BME280;2962;51.312;7.378;2022-12-07T07:29:18;97390.78;;;1.87;100.00
5872;BME280;2962;51.312;7.378;2022-12-07T07:31:43;97389.84;;;1.83;100.00
5872;BME280;2962;51.312;7.378;2022-12-07T07:34:09;97398.69;;;1.84;100.00
5872;BME280;2962;51.312;7.378;2022-12-07T07:36:34;97397.28;;;1.86;100.00
5872;BME280;2962;51.312;7.378;2022-12-07T07:38:59;97397.78;;;1.88;100.00
5872;BME280;2962;51.312;7.378;2022-12-07T07:41:25;97392.69;;;1.87;100.00
5872;BME280;2962;51.312;7.378;2022-12-07T07:43:50;97399.00;;;1.82;100.00
5872;BME280;2962;51.312;7.378;2022-12-07T07:46:15;97394.22;;;1.70;100.00
5872;BME280;2962;51.312;7.378;2022-12-07T07:48:40;97384.72;;;1.64;100.00
5872;BME280;2962;51.312;7.378;2022-12-07T07:51:07;97389.66;;;1.71;100.00
5872;BME280;2962;51.312;7.378;2022-12-07T07:53:32;97386.63;;;1.64;100.00
5872;BME280;2962;51.312;7.378;2022-12-07T07:55:58;97378.56;;;1.64;100.00
5872;BME280;2962;51.312;7.378;2022-12-07T07:58:23;97398.16;;;1.64;100.00
5872;BME280;2962;51.312;7.378;2022-12-07T08:00:49;97395.63;;;1.68;100.00
5872;BME280;2962;51.312;7.378;2022-12-07T08:03:14;97391.53;;;1.62;100.00
5872;BME280;2962;51.312;7.378;2022-12-07T08:05:39;97399.44;;;1.67;100.00
5872;BME280;2962;51.312;7.378;2022-12-07T08:08:05;97396.47;;;1.77;100.00
5872;BME280;2962;51.312;7.378;2022-12-07T08:10:30;97396.47;;;1.77;100.00
5872;BME280;2962;51.312;7.378;2022-12-07T08:12:57;97391.41;;;1.84;100.00
5872;BME280;2962;51.312;7.378;2022-12-07T08:15:46;97392.22;;;1.85;100.00
5872;BME280;2962;51.312;7.378;2022-12-07T08:18:12;97404.09;;;1.92;100.00
5872;BME280;2962;51.312;7.378;2022-12-07T08:20:39;97400.28;;;1.93;100.00
5872;BME280;2962;51.312;7.378;2022-12-07T08:23:05;97396.66;;;1.89;100.00
5872;BME280;2962;51.312;7.378;2022-12-07T08:25:32;97405.22;;;2.00;100.00
5872;BME280;2962;51.312;7.378;2022-12-07T08:27:57;97400.75;;;1.95;100.00
5872;BME280;2962;51.312;7.378;2022-12-07T08:30:23;97409.16;;;2.03;100.00
5872;BME280;2962;51.312;7.378;2022-12-07T08:32:49;97409.00;;;1.99;100.00
5872;BME280;2962;51.312;7.378;2022-12-07T08:35:15;97402.38;;;1.97;100.00
5872;BME280;2962;51.312;7.378;2022-12-07T08:37:40;97409.47;;;2.01;100.00
5872;BME280;2962;51.312;7.378;2022-12-07T08:40:07;97410.72;;;2.04;100.00
5872;BME280;2962;51.312;7.378;2022-12-07T08:42:33;97409.66;;;2.05;100.00
5872;BME280;2962;51.312;7.378;2022-12-07T08:45:06;97402.84;;;1.99;100.00
5872;BME280;2962;51.312;7.378;2022-12-07T08:47:33;97410.59;;;2.00;100.00
5872;BME280;2962;51.312;7.378;2022-12-07T08:49:58;97412.16;;;2.01;100.00
5872;BME280;2962;51.312;7.378;2022-12-07T08:52:31;97410.88;;;1.99;100.00
5872;BME280;2962;51.312;7.378;2022-12-07T08:54:58;97415.47;;;2.07;100.00
5872;BME280;2962;51.312;7.378;2022-12-07T08:57:25;97415.97;;;2.09;100.00
5872;BME280;2962;51.312;7.378;2022-12-07T08:59:51;97407.75;;;1.97;100.00
5872;BME280;2962;51.312;7.378;2022-12-07T09:02:17;97404.72;;;1.98;100.00
5872;BME280;2962;51.312;7.378;2022-12-07T09:04:42;97410.28;;;2.02;100.00
5872;BME280;2962;51.312;7.378;2022-12-07T09:07:07;97406.34;;;2.08;100.00
5872;BME280;2962;51.312;7.378;2022-12-07T09:09:32;97404.56;;;2.03;100.00
5872;BME280;2962;51.312;7.378;2022-12-07T09:11:58;97406.19;;;2.04;100.00
5872;BME280;2962;51.312;7.378;2022-12-07T09:14:23;97408.69;;;2.01;100.00
5872;BME280;2962;51.312;7.378;2022-12-07T09:16:48;97399.69;;;2.14;100.00
5872;BME280;2962;51.312;7.378;2022-12-07T09:19:14;97412.50;;;2.26;100.00
5872;BME280;2962;51.312;7.378;2022-12-07T09:21:39;97416.16;;;2.21;100.00
5872;BME280;2962;51.312;7.378;2022-12-07T09:24:04;97416.16;;;2.21;100.00
5872;BME280;2962;51.312;7.378;2022-12-07T09:26:30;97400.19;;;2.16;100.00
5872;BME280;2962;51.312;7.378;2022-12-07T09:28:55;97414.56;;;2.20;100.00
5872;BME280;2962;51.312;7.378;2022-12-07T09:31:20;97405.69;;;2.11;100.00
5872;BME280;2962;51.312;7.378;2022-12-07T09:33:45;97414.25;;;2.13;100.00
5872;BME280;2962;51.312;7.378;2022-12-07T09:36:11;97408.19;;;1.99;100.00
5872;BME280;2962;51.312;7.378;2022-12-07T09:38:36;97411.22;;;1.97;100.00
5872;BME280;2962;51.312;7.378;2022-12-07T09:41:05;97414.53;;;2.03;100.00
5872;BME280;2962;51.312;7.378;2022-12-07T09:43:32;97411.72;;;2.16;100.00
5872;BME280;2962;51.312;7.378;2022-12-07T09:45:59;97421.38;;;2.17;100.00
5872;BME280;2962;51.312;7.378;2022-12-07T09:48:36;97412.66;;;2.12;100.00
5872;BME280;2962;51.312;7.378;2022-12-07T09:53:42;97414.72;;;2.15;100.00
5872;BME280;2962;51.312;7.378;2022-12-07T09:56:14;97406.34;;;2.16;100.00
5872;BME280;2962;51.312;7.378;2022-12-07T09:58:41;97403.22;;;2.23;100.00
5872;BME280;2962;51.312;7.378;2022-12-07T10:03:32;97409.53;;;2.27;100.00
5872;BME280;2962;51.312;7.378;2022-12-07T10:05:57;97399.56;;;2.28;100.00
5872;BME280;2962;51.312;7.378;2022-12-07T10:08:24;97402.56;;;2.43;100.00
5872;BME280;2962;51.312;7.378;2022-12-07T10:10:55;97393.22;;;2.50;100.00
5872;BME280;2962;51.312;7.378;2022-12-07T10:13:48;97393.41;;;2.44;100.00
5872;BME280;2962;51.312;7.378;2022-12-07T10:16:35;97393.56;;;2.39;100.00
5872;BME280;2962;51.312;7.378;2022-12-07T10:19:20;97394.81;;;2.33;100.00
5872;BME280;2962;51.312;7.378;2022-12-07T10:22:11;97388.03;;;2.27;100.00
5872;BME280;2962;51.312;7.378;2022-12-07T10:24:41;97394.19;;;2.36;100.00
5872;BME280;2962;51.312;7.378;2022-12-07T10:27:22;97391.81;;;2.35;100.00
5872;BME280;2962;51.312;7.378;2022-12-07T10:29:52;97386.41;;;2.26;100.00
5872;BME280;2962;51.312;7.378;2022-12-07T10:34:43;97383.44;;;2.45;100.00
5872;BME280;2962;51.312;7.378;2022-12-07T10:39:42;97378.53;;;2.73;100.00
5872;BME280;2962;51.312;7.378;2022-12-07T10:42:16;97362.81;;;2.92;100.00
5872;BME280;2962;51.312;7.378;2022-12-07T10:44:42;97369.09;;;3.14;100.00
5872;BME280;2962;51.312;7.378;2022-12-07T10:47:35;97363.72;;;3.05;100.00
5872;BME280;2962;51.312;7.378;2022-12-07T10:59:03;97355.59;;;3.90;100.00
5872;BME280;2962;51.312;7.378;2022-12-07T11:01:41;97337.44;;;4.00;100.00
5872;BME280;2962;51.312;7.378;2022-12-07T11:04:53;97344.38;;;3.88;100.00
5872;BME280;2962;51.312;7.378;2022-12-07T11:10:13;97343.09;;;3.27;100.00
5872;BME280;2962;51.312;7.378;2022-12-07T11:13:21;97348.53;;;3.09;100.00
5872;BME280;2962;51.312;7.378;2022-12-07T11:18:29;97336.88;;;3.26;100.00
5872;BME280;2962;51.312;7.378;2022-12-07T11:24:04;97329.88;;;3.34;100.00
5872;BME280;2962;51.312;7.378;2022-12-07T11:26:50;97325.56;;;3.41;100.00
5872;BME280;2962;51.312;7.378;2022-12-07T11:29:33;97332.19;;;3.23;100.00
5872;BME280;2962;51.312;7.378;2022-12-07T11:37:44;97330.88;;;2.82;100.00
5872;BME280;2962;51.312;7.378;2022-12-07T11:40:21;97307.94;;;2.67;100.00
5872;BME280;2962;51.312;7.378;2022-12-07T11:42:53;97317.09;;;2.75;100.00
5872;BME280;2962;51.312;7.378;2022-12-07T11:45:35;97317.28;;;2.70;100.00
5872;BME280;2962;51.312;7.378;2022-12-07T11:48:08;97311.72;;;2.75;100.00
5872;BME280;2962;51.312;7.378;2022-12-07T11:50:39;97308.66;;;2.94;100.00
5872;BME280;2962;51.312;7.378;2022-12-07T11:55:54;97309.69;;;3.19;100.00
5872;BME280;2962;51.312;7.378;2022-12-07T11:58:37;97297.09;;;3.02;100.00
5872;BME280;2962;51.312;7.378;2022-12-07T12:03:37;97310.09;;;2.91;100.00
5872;BME280;2962;51.312;7.378;2022-12-07T12:06:05;97313.31;;;2.85;100.00
5872;BME280;2962;51.312;7.378;2022-12-07T12:08:34;97311.03;;;2.96;100.00
5872;BME280;2962;51.312;7.378;2022-12-07T12:17:28;97314.25;;;2.80;100.00
5872;BME280;2962;51.312;7.378;2022-12-07T12:22:36;97301.34;;;2.48;100.00
5872;BME280;2962;51.312;7.378;2022-12-07T12:25:06;97292.00;;;2.54;100.00
5872;BME280;2962;51.312;7.378;2022-12-07T12:27:35;97308.16;;;2.54;100.00
5872;BME280;2962;51.312;7.378;2022-12-07T12:30:05;97294.19;;;2.60;100.00
5872;BME280;2962;51.312;7.378;2022-12-07T12:32:42;97296.84;;;2.69;100.00
5872;BME280;2962;51.312;7.378;2022-12-07T12:35:32;97293.69;;;2.76;100.00
5872;BME280;2962;51.312;7.378;2022-12-07T12:38:32;97295.41;;;2.80;100.00
5872;BME280;2962;51.312;7.378;2022-12-07T12:40:59;97279.59;;;2.79;100.00
5872;BME280;2962;51.312;7.378;2022-12-07T12:51:42;97279.44;;;2.75;100.00
5872;BME280;2962;51.312;7.378;2022-12-07T12:59:31;97262.44;;;2.54;100.00
5872;BME280;2962;51.312;7.378;2022-12-07T13:04:53;97278.38;;;2.59;100.00
5872;BME280;2962;51.312;7.378;2022-12-07T13:21:01;97261.88;;;2.69;100.00
5872;BME280;2962;51.312;7.378;2022-12-07T13:29:02;97256.41;;;2.95;100.00
5872;BME280;2962;51.312;7.378;2022-12-07T13:31:35;97257.53;;;2.94;100.00
5872;BME280;2962;51.312;7.378;2022-12-07T13:34:27;97249.75;;;3.01;100.00
5872;BME280;2962;51.312;7.378;2022-12-07T13:36:51;97246.00;;;2.93;100.00
5872;BME280;2962;51.312;7.378;2022-12-07T13:39:19;97243.94;;;2.90;100.00
5872;BME280;2962;51.312;7.378;2022-12-07T13:41:48;97248.19;;;2.91;100.00
5872;BME280;2962;51.312;7.378;2022-12-07T13:44:16;97243.78;;;2.87;100.00
5872;BME280;2962;51.312;7.378;2022-12-07T13:46:57;97240.13;;;2.91;100.00
5872;BME280;2962;51.312;7.378;2022-12-07T13:49:29;97244.41;;;2.92;100.00
5872;BME280;2962;51.312;7.378;2022-12-07T13:52:28;97230.78;;;2.98;100.00
5872;BME280;2962;51.312;7.378;2022-12-07T13:55:13;97229.94;;;3.06;100.00
5872;BME280;2962;51.312;7.378;2022-12-07T13:57:40;97230.59;;;3.03;100.00
5872;BME280;2962;51.312;7.378;2022-12-07T14:00:15;97225.72;;;2.96;100.00
5872;BME280;2962;51.312;7.378;2022-12-07T14:05:27;97206.56;;;2.98;100.00
5872;BME280;2962;51.312;7.378;2022-12-07T14:12:56;97216.44;;;2.76;100.00
5872;BME280;2962;51.312;7.378;2022-12-07T14:15:25;97211.38;;;2.83;100.00
5872;BME280;2962;51.312;7.378;2022-12-07T14:17:54;97206.06;;;3.04;100.00
5872;BME280;2962;51.312;7.378;2022-12-07T14:23:02;97201.81;;;2.94;100.00
5872;BME280;2962;51.312;7.378;2022-12-07T14:25:44;97209.28;;;2.89;100.00
5872;BME280;2962;51.312;7.378;2022-12-07T14:28:25;97201.69;;;2.91;100.00
5872;BME280;2962;51.312;7.378;2022-12-07T14:30:51;97179.75;;;2.72;100.00
5872;BME280;2962;51.312;7.378;2022-12-07T14:33:23;97198.44;;;2.68;100.00
5872;BME280;2962;51.312;7.378;2022-12-07T14:35:49;97196.91;;;2.58;100.00
5872;BME280;2962;51.312;7.378;2022-12-07T14:38:14;97201.03;;;2.56;100.00
5872;BME280;2962;51.312;7.378;2022-12-07T14:40:40;97187.13;;;2.45;100.00
5872;BME280;2962;51.312;7.378;2022-12-07T14:43:09;97186.72;;;2.26;100.00
5872;BME280;2962;51.312;7.378;2022-12-07T14:45:36;97198.09;;;2.23;100.00
5872;BME280;2962;51.312;7.378;2022-12-07T14:48:02;97201.59;;;2.23;100.00
5872;BME280;2962;51.312;7.378;2022-12-07T14:50:28;97206.50;;;2.21;100.00
5872;BME280;2962;51.312;7.378;2022-12-07T14:52:59;97191.00;;;2.18;100.00
5872;BME280;2962;51.312;7.378;2022-12-07T14:55:31;97194.19;;;2.20;100.00
5872;BME280;2962;51.312;7.378;2022-12-07T14:57:57;97196.22;;;2.14;100.00
5872;BME280;2962;51.312;7.378;2022-12-07T15:00:25;97202.22;;;2.11;100.00
5872;BME280;2962;51.312;7.378;2022-12-07T15:02:51;97201.78;;;2.09;100.00
5872;BME280;2962;51.312;7.378;2022-12-07T15:05:17;97196.75;;;2.08;100.00
5872;BME280;2962;51.312;7.378;2022-12-07T15:07:44;97201.13;;;2.04;100.00
5872;BME280;2962;51.312;7.378;2022-12-07T15:12:45;97196.59;;;2.04;100.00
5872;BME280;2962;51.312;7.378;2022-12-07T15:15:11;97202.09;;;1.99;100.00
5872;BME280;2962;51.312;7.378;2022-12-07T15:17:37;97197.38;;;1.96;100.00
5872;BME280;2962;51.312;7.378;2022-12-07T15:20:03;97185.38;;;1.93;100.00
5872;BME280;2962;51.312;7.378;2022-12-07T15:22:28;97181.25;;;1.87;100.00
5872;BME280;2962;51.312;7.378;2022-12-07T15:24:56;97186.00;;;1.90;100.00
5872;BME280;2962;51.312;7.378;2022-12-07T15:27:21;97182.22;;;1.83;100.00
5872;BME280;2962;51.312;7.378;2022-12-07T15:29:46;97189.16;;;1.84;100.00
5872;BME280;2962;51.312;7.378;2022-12-07T15:32:12;97172.25;;;1.83;100.00
5872;BME280;2962;51.312;7.378;2022-12-07T15:34:37;97185.38;;;1.67;100.00